Time;durP1;ratioP1;P1;durP2;ratioP2;P2;SDS_P1;SDS_P2;PMS_P1;PMS_P2;Temp;Humidity;BMP_temperature;BMP_pressure;BME280_temperature;BME280_humidity;BME280_pressure;Samples;Min_cycle;Max_cycle;Signal;HPM_P1;HPM_P2
2023/04/14 00:00:47;;;;;;;5.22;2.10;;;;;;;5.50;80.36;101026.09;6102609;19;20066;-72
2023/04/14 00:02:52;;;;;;;6.13;2.63;;;;;;;5.49;81.30;101024.41;6103544;19;20014;-70
2023/04/14 00:04:58;;;;;;;7.97;2.90;;;;;;;5.39;81.90;101028.03;6097711;19;20364;-70
2023/04/14 00:07:03;;;;;;;8.65;2.47;;;;;;;5.37;82.02;101024.59;6103417;19;20049;-70
2023/04/14 00:09:11;;;;;;;5.07;2.55;;;;;;;5.34;82.17;101025.50;6105073;19;20019;-70
2023/04/14 00:11:16;;;;;;;4.32;2.30;;;;;;;5.26;81.50;101027.38;6100795;19;20050;-70
2023/04/14 00:13:24;;;;;;;6.57;2.50;;;;;;;5.21;81.56;101032.66;6101611;19;20018;-71
2023/04/14 00:15:29;;;;;;;7.70;2.65;;;;;;;5.20;82.15;101032.69;6100913;19;20018;-70
2023/04/14 00:17:34;;;;;;;6.85;2.53;;;;;;;5.14;82.49;101020.63;6103404;19;20017;-71
2023/04/14 00:19:40;;;;;;;7.32;2.50;;;;;;;5.11;82.29;101030.19;6104789;19;20010;-70
2023/04/14 00:21:45;;;;;;;9.52;2.85;;;;;;;5.15;82.67;101034.50;6104191;19;20042;-70
2023/04/14 00:23:51;;;;;;;7.85;2.83;;;;;;;5.08;82.40;101033.72;6105081;19;20054;-71
2023/04/14 00:25:58;;;;;;;12.45;3.10;;;;;;;5.05;82.57;101031.16;6102697;19;20038;-70
2023/04/14 00:28:04;;;;;;;9.88;2.85;;;;;;;5.00;82.93;101040.78;6098601;19;20014;-71
2023/04/14 00:30:10;;;;;;;7.97;2.33;;;;;;;4.98;83.64;101039.97;6098227;19;20011;-70
2023/04/14 00:32:15;;;;;;;5.30;2.25;;;;;;;5.01;83.78;101042.53;6098534;19;20006;-71
2023/04/14 00:34:22;;;;;;;9.60;3.45;;;;;;;4.95;83.32;101042.59;6101326;19;20026;-72
2023/04/14 00:36:28;;;;;;;9.15;2.67;;;;;;;4.95;84.40;101046.06;6099914;19;20769;-69
2023/04/14 00:38:35;;;;;;;7.97;2.53;;;;;;;4.99;83.95;101044.28;6102095;19;20010;-70
2023/04/14 00:40:41;;;;;;;7.72;2.30;;;;;;;4.94;84.05;101036.53;6100790;19;20562;-72
2023/04/14 00:42:52;;;;;;;9.05;2.28;;;;;;;4.92;84.37;101047.84;6101924;19;20463;-72
2023/04/14 00:44:57;;;;;;;3.90;2.22;;;;;;;4.95;84.82;101048.69;6096150;19;20420;-72
2023/04/14 00:47:03;;;;;;;5.60;2.15;;;;;;;4.95;84.59;101047.78;6100806;19;20006;-71
2023/04/14 00:49:09;;;;;;;5.28;2.22;;;;;;;4.88;84.08;101052.25;6099481;19;20049;-71
2023/04/14 00:51:14;;;;;;;8.15;2.10;;;;;;;4.83;84.48;101054.91;6098579;19;20024;-70
2023/04/14 00:53:22;;;;;;;9.32;2.90;;;;;;;5.00;85.45;101054.69;6096825;19;20282;-70
2023/04/14 00:55:28;;;;;;;6.57;2.22;;;;;;;5.12;84.69;101052.78;6101678;19;20042;-70
2023/04/14 00:57:33;;;;;;;7.63;2.50;;;;;;;5.04;84.75;101056.34;6100875;19;20034;-70
2023/04/14 00:59:42;;;;;;;6.30;2.28;;;;;;;4.94;84.10;101056.50;6103224;19;20010;-78
2023/04/14 01:01:47;;;;;;;7.97;2.53;;;;;;;4.97;84.78;101053.84;6103722;19;20789;-78
2023/04/14 01:03:53;;;;;;;9.27;2.75;;;;;;;4.86;85.29;101056.59;6100344;19;20361;-78
2023/04/14 01:05:59;;;;;;;7.97;2.67;;;;;;;4.81;84.89;101056.66;6100767;19;20007;-76
2023/04/14 01:08:05;;;;;;;6.28;2.72;;;;;;;4.80;84.98;101052.34;6097188;19;20010;-77
2023/04/14 01:10:11;;;;;;;12.25;3.03;;;;;;;4.81;85.22;101059.25;6100608;19;20014;-78
2023/04/14 01:12:26;;;;;;;5.00;2.78;;;;;;;5.00;86.39;101064.22;6098581;19;20010;-77
2023/04/14 01:14:40;;;;;;;7.60;2.28;;;;;;;5.10;86.57;101068.41;6098462;19;20010;-78
2023/04/14 01:16:49;;;;;;;7.55;3.03;;;;;;;5.21;85.79;101070.88;6096596;19;20032;-71
2023/04/14 01:19:00;;;;;;;8.88;2.85;;;;;;;5.22;85.67;101059.56;6098042;19;20483;-70
2023/04/14 01:21:12;;;;;;;9.00;3.15;;;;;;;5.23;85.39;101067.34;6092513;19;20626;-71
2023/04/14 01:23:25;;;;;;;7.28;2.75;;;;;;;5.24;85.69;101061.28;6097258;19;20014;-71
2023/04/14 01:26:04;;;;;;;8.68;2.53;;;;;;;5.15;84.98;101058.78;6097276;19;20080;-70
2023/04/14 01:28:18;;;;;;;6.25;2.70;;;;;;;5.16;85.61;101054.44;6093672;19;20061;-71
2023/04/14 01:31:00;;;;;;;6.70;2.63;;;;;;;5.19;85.37;101052.66;6095338;19;20188;-70
2023/04/14 01:33:12;;;;;;;8.88;2.55;;;;;;;5.20;86.10;101053.53;6093716;19;20007;-70
2023/04/14 01:35:24;;;;;;;8.63;2.95;;;;;;;5.23;86.15;101050.88;6093693;19;20821;-71
2023/04/14 01:37:33;;;;;;;12.15;3.08;;;;;;;5.18;85.81;101055.28;6098712;19;20643;-70
2023/04/14 01:39:42;;;;;;;8.23;2.72;;;;;;;5.21;85.47;101058.72;6096434;19;20007;-70
2023/04/14 01:41:54;;;;;;;8.95;2.50;;;;;;;5.25;85.99;101059.53;6095899;19;20028;-70
2023/04/14 01:44:03;;;;;;;4.15;2.50;;;;;;;5.24;85.61;101056.06;6092427;19;20011;-71
2023/04/14 01:46:12;;;;;;;8.98;3.45;;;;;;;5.30;85.67;101055.09;6096055;19;20490;-71
2023/04/14 01:48:21;;;;;;;6.50;2.35;;;;;;;5.27;85.75;101062.97;6096155;19;20389;-71
2023/04/14 01:50:30;;;;;;;6.43;2.78;;;;;;;5.28;85.87;101062.09;6096295;19;20003;-71
2023/04/14 01:52:37;;;;;;;7.85;2.33;;;;;;;5.24;86.09;101061.28;6093641;19;20026;-70
2023/04/14 01:54:45;;;;;;;5.22;2.40;;;;;;;5.28;86.10;101057.72;6098052;19;20558;-70
2023/04/14 01:56:54;;;;;;;8.55;3.05;;;;;;;5.28;86.14;101056.88;6094928;19;20471;-71
2023/04/14 01:59:00;;;;;;;6.82;2.50;;;;;;;5.26;85.76;101056.03;6090894;19;20011;-70
2023/04/14 02:01:12;;;;;;;8.38;2.80;;;;;;;5.34;86.36;101061.97;6092660;19;20066;-70
2023/04/14 02:03:23;;;;;;;11.18;2.67;;;;;;;5.31;86.31;101056.81;6095030;19;20021;-71
2023/04/14 02:05:32;;;;;;;6.57;2.53;;;;;;;5.36;86.27;101062.81;6096827;19;20471;-71
2023/04/14 02:07:38;;;;;;;11.63;3.28;;;;;;;5.36;86.31;101059.38;6097302;19;20067;-71
2023/04/14 02:09:45;;;;;;;7.85;2.33;;;;;;;5.35;86.20;101066.31;6097066;19;20360;-71
2023/04/14 02:11:53;;;;;;;7.97;2.58;;;;;;;5.31;86.45;101066.38;6099956;19;20490;-70
2023/04/14 02:13:59;;;;;;;7.70;3.15;;;;;;;5.33;86.63;101060.28;6098428;19;20043;-70
2023/04/14 02:16:07;;;;;;;8.35;3.08;;;;;;;5.30;86.84;101059.47;6094609;19;20605;-70
2023/04/14 02:18:13;;;;;;;7.13;2.53;;;;;;;5.27;86.65;101061.22;6093559;19;20318;-70
2023/04/14 02:20:21;;;;;;;9.13;2.92;;;;;;;5.27;87.37;101071.66;6096688;19;20351;-71
2023/04/14 02:22:29;;;;;;;8.90;2.65;;;;;;;5.25;87.18;101070.81;6094189;19;20015;-70
2023/04/14 02:24:34;;;;;;;10.30;2.78;;;;;;;5.28;87.28;101067.28;6093894;19;20010;-70
2023/04/14 02:26:45;;;;;;;9.77;3.15;;;;;;;5.35;87.25;101066.31;6093960;19;20007;-70
2023/04/14 02:28:55;;;;;;;8.95;2.85;;;;;;;5.34;86.99;101068.94;6103779;19;20119;-71
2023/04/14 02:31:02;;;;;;;5.65;2.60;;;;;;;5.31;86.97;101071.59;6096219;19;20034;-71
2023/04/14 02:33:11;;;;;;;8.27;3.33;;;;;;;5.35;87.42;101068.06;6096909;19;20085;-71
2023/04/14 02:35:23;;;;;;;7.70;3.65;;;;;;;5.37;86.92;101074.09;6101565;19;22892;-70
2023/04/14 02:37:38;;;;;;;9.68;3.38;;;;;;;5.35;87.26;101068.06;6102139;19;20077;-70
2023/04/14 02:39:46;;;;;;;8.60;3.33;;;;;;;5.34;87.07;101069.78;6101819;19;20010;-71
2023/04/14 02:42:00;;;;;;;6.13;3.13;;;;;;;5.36;87.46;101072.38;6099257;19;20469;-71
2023/04/14 02:44:07;;;;;;;;;;;;;;;5.37;87.36;101076.72;6101027;19;20412;-71
2023/04/14 02:46:15;;;;;;;6.90;2.72;;;;;;;5.35;87.04;101073.28;6098791;19;19926;-70
2023/04/14 02:48:30;;;;;;;9.00;3.40;;;;;;;5.35;87.02;101071.53;6103873;19;20003;-71
2023/04/14 02:50:37;;;;;;;8.85;3.20;;;;;;;5.27;87.49;101071.66;6100699;19;20007;-71
2023/04/14 02:52:50;;;;;;;8.23;3.38;;;;;;;5.25;87.00;101076.00;6095739;19;20771;-71
2023/04/14 02:54:56;;;;;;;6.07;3.00;;;;;;;5.26;87.62;101076.88;6103678;19;20003;-71
2023/04/14 02:57:02;;;;;;;5.05;3.00;;;;;;;5.23;87.53;101072.56;6100429;19;20005;-71
2023/04/14 02:59:08;;;;;;;8.82;3.33;;;;;;;5.15;87.58;101069.22;6099257;19;20011;-72
2023/04/14 03:01:14;;;;;;;9.05;3.25;;;;;;;5.09;87.68;101060.66;6101077;19;20373;-72
2023/04/14 03:03:23;;;;;;;7.50;2.67;;;;;;;4.99;87.41;101067.72;6101100;19;20021;-70
2023/04/14 03:05:29;;;;;;;8.30;2.60;;;;;;;4.98;88.39;101061.66;6105114;19;20005;-70
2023/04/14 03:07:35;;;;;;;6.10;2.47;;;;;;;5.07;88.19;101069.31;6103694;19;20434;-70
2023/04/14 03:09:44;;;;;;;12.52;2.90;;;;;;;5.10;88.13;101073.63;6100658;19;20006;-70
2023/04/14 03:11:51;;;;;;;10.90;2.92;;;;;;;5.09;87.83;101069.31;6101900;19;20006;-70
2023/04/14 03:13:59;;;;;;;10.68;3.28;;;;;;;5.07;88.14;101071.06;6103363;19;20006;-70
2023/04/14 03:16:05;;;;;;;6.57;2.75;;;;;;;5.04;87.95;101071.13;6102919;19;20020;-70
2023/04/14 03:18:13;;;;;;;9.07;3.35;;;;;;;5.01;88.28;101073.78;6103218;19;20429;-70
2023/04/14 03:20:22;;;;;;;11.10;3.60;;;;;;;4.99;88.46;101073.78;6105916;19;20104;-70
2023/04/14 03:22:28;;;;;;;9.18;3.30;;;;;;;4.95;88.06;101073.84;6104864;19;20024;-70
2023/04/14 03:24:35;;;;;;;10.18;3.47;;;;;;;4.94;88.03;101067.78;6105913;19;20478;-70
2023/04/14 03:26:48;;;;;;;12.60;3.22;;;;;;;4.92;88.51;101077.34;6105211;19;20015;-70
2023/04/14 03:28:56;;;;;;;12.20;3.53;;;;;;;4.89;88.46;101071.31;6105746;19;20006;-71
2023/04/14 03:31:05;;;;;;;11.68;3.65;;;;;;;4.88;88.54;101077.41;6103067;19;20007;-71
2023/04/14 03:33:13;;;;;;;10.95;5.40;;;;;;;4.79;88.55;101076.66;6107267;19;20011;-71
2023/04/14 03:35:21;;;;;;;9.93;3.50;;;;;;;4.78;88.37;101079.28;6101410;19;20462;-72
2023/04/14 03:37:29;;;;;;;12.35;4.10;;;;;;;4.75;88.56;101077.56;6105112;19;20013;-69
2023/04/14 03:39:37;;;;;;;10.05;3.78;;;;;;;4.77;89.10;101074.97;6100916;19;20495;-70
2023/04/14 03:41:50;;;;;;;12.82;3.97;;;;;;;4.82;88.95;101078.38;6102786;19;20083;-70
2023/04/14 03:43:56;;;;;;;;;;;;;;;4.84;88.74;101081.78;6102608;19;20096;-70
2023/04/14 03:46:04;;;;;;;13.48;4.88;;;;;;;4.78;88.50;101087.94;6100599;19;20404;-71
2023/04/14 03:48:13;;;;;;;12.70;3.97;;;;;;;4.75;88.68;101087.13;6102519;19;20325;-71
2023/04/14 03:50:23;;;;;;;11.15;4.80;;;;;;;4.70;89.02;101089.78;6101418;19;20150;-71
2023/04/14 03:52:31;;;;;;;10.05;4.05;;;;;;;4.66;88.35;101092.44;6101293;19;20013;-71
2023/04/14 03:54:39;;;;;;;10.68;4.07;;;;;;;4.71;88.36;101091.50;6102277;19;20007;-72
2023/04/14 03:56:47;;;;;;;11.93;3.75;;;;;;;4.71;88.48;101085.44;6103645;19;20021;-71
2023/04/14 03:58:55;;;;;;;7.97;3.78;;;;;;;4.75;88.25;101080.19;6101190;19;20007;-71
2023/04/14 04:01:01;;;;;;;12.65;4.05;;;;;;;4.65;88.30;101080.31;6098134;19;20014;-71
2023/04/14 04:03:07;;;;;;;12.38;4.22;;;;;;;4.58;88.40;101079.50;6104315;19;20048;-71
2023/04/14 04:05:13;;;;;;;11.18;3.92;;;;;;;4.58;89.25;101077.78;6102621;19;20009;-72
2023/04/14 04:07:21;;;;;;;11.80;4.03;;;;;;;4.48;88.72;101078.78;6105153;19;20011;-71
2023/04/14 04:09:27;;;;;;;13.05;4.38;;;;;;;4.41;88.65;101090.13;6103502;19;20010;-71
2023/04/14 04:11:35;;;;;;;14.10;4.22;;;;;;;4.42;89.36;101085.78;6105612;19;20042;-71
2023/04/14 04:13:44;;;;;;;10.20;4.28;;;;;;;4.41;89.48;101095.31;6103985;19;20007;-70
2023/04/14 04:15:52;;;;;;;10.80;4.13;;;;;;;4.41;88.84;101090.13;6102518;19;20018;-70
2023/04/14 04:18:01;;;;;;;10.35;4.25;;;;;;;4.41;89.61;101090.13;6102763;19;20016;-71
2023/04/14 04:20:09;;;;;;;8.68;4.03;;;;;;;4.39;89.45;101095.34;6098494;19;20047;-72
2023/04/14 04:22:19;;;;;;;12.35;4.95;;;;;;;4.39;89.38;101089.28;6101957;19;20019;-71
2023/04/14 04:24:26;;;;;;;15.85;5.18;;;;;;;4.41;89.69;101087.53;6101477;19;20003;-71
2023/04/14 04:26:31;;;;;;;13.20;5.90;;;;;;;4.36;89.65;101095.38;6100292;19;20074;-70
2023/04/14 04:28:44;;;;;;;11.10;4.53;;;;;;;4.33;89.68;101094.56;6103633;19;20292;-70
2023/04/14 04:30:54;;;;;;;12.40;5.05;;;;;;;4.29;89.44;101098.94;6100211;19;20034;-70
2023/04/14 04:32:59;;;;;;;13.65;4.47;;;;;;;4.32;89.56;101098.91;6098823;19;20010;-71
2023/04/14 04:35:06;;;;;;;12.20;4.50;;;;;;;4.29;89.62;101098.94;6096762;19;20013;-70
2023/04/14 04:37:12;;;;;;;17.35;5.10;;;;;;;4.25;89.41;101097.22;6095926;19;20011;-70
2023/04/14 04:39:19;;;;;;;15.85;5.97;;;;;;;4.28;89.68;101102.41;6097558;19;20476;-71
2023/04/14 04:41:25;;;;;;;15.25;5.50;;;;;;;4.21;89.60;101100.72;6099335;19;20011;-70
2023/04/14 04:43:30;;;;;;;15.45;6.22;;;;;;;4.18;89.44;101096.41;6094572;19;20403;-71
2023/04/14 04:45:53;;;;;;;15.80;5.00;;;;;;;4.25;89.67;101104.19;6099259;19;20433;-71
2023/04/14 04:47:58;;;;;;;12.48;5.15;;;;;;;4.30;89.23;101107.59;6098127;19;20018;-71
2023/04/14 04:50:03;;;;;;;16.80;6.13;;;;;;;4.27;88.93;101103.28;6095152;19;20015;-71
2023/04/14 04:52:08;;;;;;;17.35;6.85;;;;;;;4.24;88.88;101105.03;6095721;19;20023;-71
2023/04/14 04:54:14;;;;;;;17.67;5.63;;;;;;;4.26;88.95;101101.53;6097866;19;20257;-71
2023/04/14 04:56:22;;;;;;;15.32;5.50;;;;;;;4.23;88.95;101101.59;6101009;19;20514;-71
2023/04/14 04:58:29;;;;;;;15.25;5.50;;;;;;;4.21;88.96;101102.47;6100131;19;20013;-71
2023/04/14 05:00:34;;;;;;;17.05;6.32;;;;;;;4.13;89.37;101110.34;6098737;19;20324;-71
2023/04/14 05:02:45;;;;;;;21.73;7.15;;;;;;;4.12;89.34;101104.28;6098095;19;20106;-72
2023/04/14 05:04:50;;;;;;;18.23;6.30;;;;;;;4.07;89.55;101108.66;6096173;19;20010;-71
2023/04/14 05:06:56;;;;;;;19.10;6.65;;;;;;;4.11;89.49;101102.59;6096993;19;20002;-71
2023/04/14 05:09:01;;;;;;;16.25;6.70;;;;;;;4.15;89.29;101106.00;6093660;19;20017;-72
2023/04/14 05:11:07;;;;;;;19.40;8.15;;;;;;;4.15;89.20;101104.25;6097369;19;20013;-70
2023/04/14 05:13:12;;;;;;;20.98;6.72;;;;;;;4.14;89.14;101105.16;6099163;19;20007;-71
2023/04/14 05:15:18;;;;;;;17.27;7.13;;;;;;;4.23;88.79;101100.72;6097872;19;20014;-71
2023/04/14 05:17:23;;;;;;;18.48;6.90;;;;;;;4.30;88.92;101105.00;6098390;19;20055;-70
2023/04/14 05:19:30;;;;;;;17.98;6.85;;;;;;;4.33;88.42;101110.16;6099139;19;20006;-70
2023/04/14 05:21:35;;;;;;;19.92;6.93;;;;;;;4.23;88.58;101106.78;6094604;19;20257;-70
2023/04/14 05:23:42;;;;;;;18.65;6.82;;;;;;;4.27;88.73;101116.28;6097048;19;20010;-70
2023/04/14 05:25:47;;;;;;;19.75;7.97;;;;;;;4.37;88.63;101111.84;6098535;19;20579;-70
2023/04/14 05:27:52;;;;;;;20.67;8.25;;;;;;;4.42;88.44;101119.59;6098628;19;20066;-72
2023/04/14 05:29:57;;;;;;;26.27;7.47;;;;;;;4.45;88.52;101120.44;6096627;19;20007;-71
2023/04/14 05:32:02;;;;;;;24.48;8.50;;;;;;;4.57;88.17;101122.03;6097552;19;20038;-71
2023/04/14 05:34:07;;;;;;;23.40;7.13;;;;;;;4.62;88.18;101121.09;6097693;19;20323;-71
2023/04/14 05:36:16;;;;;;;22.05;8.40;;;;;;;4.69;87.89;101134.94;6088692;19;20018;-71
2023/04/14 05:38:25;;;;;;;24.88;8.10;;;;;;;4.77;87.68;101134.84;6093510;19;20107;-71
2023/04/14 05:40:30;;;;;;;24.40;8.60;;;;;;;4.86;87.46;101137.31;6095760;19;20026;-72
2023/04/14 05:42:36;;;;;;;19.42;7.25;;;;;;;4.96;87.15;101131.13;6093643;19;20011;-71
2023/04/14 05:44:47;;;;;;;23.63;9.05;;;;;;;5.05;86.55;101132.72;6095871;19;20014;-71
2023/04/14 05:46:52;;;;;;;26.08;8.55;;;;;;;5.22;86.42;101133.38;6094387;19;20094;-71
2023/04/14 05:48:59;;;;;;;26.20;8.90;;;;;;;5.39;86.05;101127.06;6088549;19;20012;-72
2023/04/14 05:51:05;;;;;;;22.20;8.85;;;;;;;5.48;85.48;101133.03;6096592;19;20010;-70
2023/04/14 05:53:14;;;;;;;18.25;7.95;;;;;;;5.65;84.89;101124.94;6092729;19;20018;-70
2023/04/14 05:55:22;;;;;;;21.85;9.60;;;;;;;5.69;84.56;101129.22;6099125;19;20022;-71
2023/04/14 05:57:29;;;;;;;23.40;8.75;;;;;;;5.86;84.13;101130.69;6098662;19;20067;-77
2023/04/14 05:59:35;;;;;;;21.38;7.93;;;;;;;6.05;83.61;101121.69;6101240;19;20071;-78
2023/04/14 06:01:40;;;;;;;19.88;7.90;;;;;;;6.22;82.78;101128.38;6100577;19;20070;-77
2023/04/14 06:03:47;;;;;;;26.23;9.68;;;;;;;6.39;82.84;101131.53;6107386;19;20381;-77
2023/04/14 06:05:53;;;;;;;19.65;8.38;;;;;;;6.54;82.09;101128.63;6108792;19;20012;-77
2023/04/14 06:07:57;;;;;;;18.63;7.72;;;;;;;6.63;81.40;101121.50;6107529;19;20034;-78
2023/04/14 06:10:06;;;;;;;23.52;7.70;;;;;;;6.71;80.55;101130.91;6107989;19;20007;-77
2023/04/14 06:12:11;;;;;;;17.77;8.23;;;;;;;6.79;80.56;101126.41;6106956;19;20086;-78
2023/04/14 06:14:18;;;;;;;18.63;7.70;;;;;;;6.87;79.52;101128.00;6108409;19;20566;-77
2023/04/14 06:16:23;;;;;;;20.15;8.00;;;;;;;7.01;79.80;101131.19;6106309;19;20016;-79
2023/04/14 06:18:28;;;;;;;15.02;7.50;;;;;;;7.21;78.95;101126.41;6108427;19;20015;-77
2023/04/14 06:20:33;;;;;;;20.48;7.85;;;;;;;7.33;78.44;101122.66;6111923;19;20095;-77
2023/04/14 06:22:40;;;;;;;21.75;8.15;;;;;;;7.24;78.42;101120.22;6109642;19;20419;-77
2023/04/14 06:24:45;;;;;;;22.00;8.43;;;;;;;7.28;77.68;101126.25;6109790;19;20019;-77
2023/04/14 06:26:57;;;;;;;20.42;7.68;;;;;;;7.39;77.04;101119.88;6104939;19;20341;-78
2023/04/14 06:29:06;;;;;;;20.30;8.13;;;;;;;7.74;76.61;101122.56;6102067;19;20039;-77
2023/04/14 06:31:13;;;;;;;19.98;8.35;;;;;;;7.90;76.11;101119.56;6105373;19;20010;-79
2023/04/14 06:33:18;;;;;;;20.52;8.02;;;;;;;7.90;75.93;101119.56;6105997;19;20046;-77
2023/04/14 06:35:23;;;;;;;20.83;8.60;;;;;;;8.15;75.46;101111.06;6103355;19;20018;-78
2023/04/14 06:37:37;;;;;;;14.40;6.40;;;;;;;8.27;74.45;101112.53;6104052;19;20042;-78
2023/04/14 06:39:42;;;;;;;20.73;8.32;;;;;;;8.25;73.67;101111.69;6104774;19;20031;-77
2023/04/14 06:41:48;;;;;;;22.25;7.85;;;;;;;8.34;72.96;101117.53;6100620;19;20010;-78
2023/04/14 06:43:55;;;;;;;19.42;7.13;;;;;;;8.38;73.03;101110.47;6099366;19;20491;-78
2023/04/14 06:46:00;;;;;;;19.42;6.40;;;;;;;8.79;72.81;101118.94;6102529;19;20011;-78
2023/04/14 06:48:06;;;;;;;20.95;8.50;;;;;;;8.92;72.83;101111.59;6096504;19;20234;-77
2023/04/14 06:50:13;;;;;;;17.52;7.05;;;;;;;9.25;71.83;101109.72;6096744;19;20006;-77
2023/04/14 06:52:18;;;;;;;19.13;6.40;;;;;;;9.27;70.71;101110.56;6096339;19;20778;-76
2023/04/14 06:54:23;;;;;;;26.08;7.28;;;;;;;9.51;69.62;101108.94;6102001;19;20006;-76
2023/04/14 06:56:28;;;;;;;15.60;6.70;;;;;;;9.17;69.51;101115.22;6103234;19;20383;-76
2023/04/14 06:58:33;;;;;;;17.55;6.85;;;;;;;9.40;69.65;101111.00;6104851;19;20046;-77
2023/04/14 07:00:41;;;;;;;17.10;6.40;;;;;;;9.50;68.52;101108.97;6103672;19;20021;-76
2023/04/14 07:02:48;;;;;;;12.02;5.78;;;;;;;9.70;68.71;101116.22;6101686;19;20002;-76
2023/04/14 07:04:54;;;;;;;14.52;6.18;;;;;;;9.58;68.09;101110.41;6094160;19;20007;-77
2023/04/14 07:07:01;;;;;;;19.52;6.60;;;;;;;10.00;67.83;101104.66;6092529;19;20647;-75
2023/04/14 07:09:06;;;;;;;13.48;5.35;;;;;;;9.97;66.95;101102.16;6089617;19;20512;-76
2023/04/14 07:11:13;;;;;;;15.68;5.63;;;;;;;9.97;67.43;101107.41;6088963;19;20030;-76
2023/04/14 07:13:18;;;;;;;17.67;5.70;;;;;;;9.88;66.45;101105.09;6091532;19;20010;-76
2023/04/14 07:15:23;;;;;;;17.02;5.60;;;;;;;9.88;67.44;101110.34;6086043;19;20014;-76
2023/04/14 07:17:31;;;;;;;16.73;5.90;;;;;;;10.26;66.51;101105.56;6097835;19;20110;-76
2023/04/14 07:19:36;;;;;;;12.27;5.65;;;;;;;10.82;66.01;101100.06;6089047;19;20517;-75
2023/04/14 07:21:41;;;;;;;14.70;4.78;;;;;;;10.50;64.04;101096.81;6099501;19;20015;-78
2023/04/14 07:23:48;;;;;;;13.32;5.25;;;;;;;10.93;63.29;101091.78;6094461;19;20117;-77
2023/04/14 07:25:54;;;;;;;10.93;4.57;;;;;;;10.98;63.52;101081.94;6088505;19;20007;-76
2023/04/14 07:27:59;;;;;;;14.52;4.70;;;;;;;11.21;63.79;101083.66;6084942;19;20917;-77
2023/04/14 07:30:08;;;;;;;12.25;4.75;;;;;;;11.05;63.23;101082.53;6096713;19;20578;-69
2023/04/14 07:32:13;;;;;;;11.45;3.88;;;;;;;10.91;61.88;101081.31;6087964;19;20396;-70
2023/04/14 07:34:21;;;;;;;10.95;4.15;;;;;;;10.66;63.39;101080.50;6094340;19;20020;-77
2023/04/14 07:36:27;;;;;;;11.82;4.03;;;;;;;10.62;64.30;101074.50;6094734;19;20011;-76
2023/04/14 07:38:33;;;;;;;10.27;4.03;;;;;;;10.61;63.59;101090.31;6097459;19;20333;-76
2023/04/14 07:40:38;;;;;;;11.95;4.40;;;;;;;10.34;64.06;101079.91;6102743;19;20012;-76
2023/04/14 07:42:44;;;;;;;10.98;3.65;;;;;;;10.83;63.37;101083.38;6099856;19;20042;-70
2023/04/14 07:44:51;;;;;;;12.15;3.92;;;;;;;11.50;61.69;101087.75;6098896;19;20014;-70
2023/04/14 07:46:57;;;;;;;9.45;3.47;;;;;;;10.99;61.59;101079.25;6087664;19;20003;-70
2023/04/14 07:49:04;;;;;;;8.48;3.90;;;;;;;11.31;60.71;101079.75;6094654;19;20421;-70
2023/04/14 07:51:14;;;;;;;10.85;4.15;;;;;;;11.30;61.23;101075.41;6098507;19;20026;-70
2023/04/14 07:53:21;;;;;;;8.52;3.42;;;;;;;11.15;60.93;101079.50;6097291;19;20070;-70
2023/04/14 07:55:26;;;;;;;12.32;3.95;;;;;;;11.53;60.16;101076.25;6082453;19;20368;-69
2023/04/14 07:57:31;;;;;;;8.60;3.50;;;;;;;11.41;60.65;101082.88;6099921;19;20015;-70
2023/04/14 07:59:37;;;;;;;11.68;3.65;;;;;;;12.05;58.86;101077.59;6100484;19;20019;-70
2023/04/14 08:01:42;;;;;;;12.07;3.45;;;;;;;12.19;58.35;101076.16;6097373;19;20625;-71
2023/04/14 08:03:51;;;;;;;12.65;3.80;;;;;;;12.53;58.90;101075.50;6094306;19;20003;-69
2023/04/14 08:06:16;;;;;;;7.75;3.35;;;;;;;12.64;58.21;101072.44;6092548;19;20504;-73
2023/04/14 08:08:26;;;;;;;9.93;3.58;;;;;;;12.50;57.20;101071.22;6085458;19;20476;-73
2023/04/14 08:10:31;;;;;;;7.75;3.45;;;;;;;12.09;57.06;101070.44;6098598;19;20118;-73
2023/04/14 08:12:36;;;;;;;10.82;3.25;;;;;;;12.11;57.34;101068.56;6097966;19;20114;-73
2023/04/14 08:14:41;;;;;;;6.60;3.30;;;;;;;11.97;57.36;101069.16;6095883;19;20002;-72
2023/04/14 08:16:46;;;;;;;7.50;2.90;;;;;;;12.26;56.92;101072.34;6098378;19;20019;-74
2023/04/14 08:18:55;;;;;;;7.53;2.65;;;;;;;11.81;57.34;101074.19;6096696;19;20007;-75
2023/04/14 08:21:04;;;;;;;7.20;2.70;;;;;;;11.85;57.40;101074.94;6098446;19;20006;-74
2023/04/14 08:23:11;;;;;;;7.97;2.70;;;;;;;11.83;57.75;101074.16;6101143;19;20010;-75
2023/04/14 08:25:21;;;;;;;6.00;2.60;;;;;;;11.26;58.40;101067.69;6100552;19;20117;-74
2023/04/14 08:27:26;;;;;;;9.07;3.20;;;;;;;11.39;58.48;101071.56;6100483;19;20031;-75
2023/04/14 08:29:31;;;;;;;6.82;2.70;;;;;;;11.24;59.66;101069.53;6097582;19;20011;-76
2023/04/14 08:31:36;;;;;;;5.70;2.80;;;;;;;11.83;58.25;101075.00;6095305;19;20529;-74
2023/04/14 08:33:41;;;;;;;8.45;3.63;;;;;;;12.61;56.85;101073.41;6095423;19;20010;-73
2023/04/14 08:35:46;;;;;;;16.33;4.60;;;;;;;12.92;55.39;101069.34;6099144;19;20491;-73
2023/04/14 08:38:03;;;;;;;9.38;4.15;;;;;;;12.31;55.53;101073.00;6099476;19;20025;-72
2023/04/14 08:40:12;;;;;;;13.27;4.25;;;;;;;12.36;56.09;101065.72;6102974;19;20625;-72
2023/04/14 08:42:25;;;;;;;7.25;3.15;;;;;;;12.45;56.13;101061.81;6095990;19;20102;-71
2023/04/14 08:44:35;;;;;;;7.20;2.78;;;;;;;12.45;55.68;101064.47;6101098;19;20003;-71
2023/04/14 08:47:09;;;;;;;8.88;3.47;;;;;;;12.51;55.26;101058.94;6100475;19;20061;-72
2023/04/14 08:49:32;;;;;;;28.23;7.22;;;;;;;12.93;54.42;101060.53;6076138;19;20011;-72
2023/04/14 08:51:42;;;;;;;8.52;2.78;;;;;;;12.81;53.71;101064.56;6097408;19;20093;-72
2023/04/14 08:53:54;;;;;;;6.00;2.30;;;;;;;12.80;54.50;101064.66;6083355;19;20020;-72
2023/04/14 08:56:08;;;;;;;7.10;2.17;;;;;;;13.11;53.07;101062.31;6068765;19;20014;-72
2023/04/14 08:58:25;;;;;;;7.53;2.03;;;;;;;12.99;52.45;101064.66;6092510;19;20401;-72
2023/04/14 09:00:47;;;;;;;7.57;2.67;;;;;;;13.22;51.52;101063.53;6096902;19;20399;-72
2023/04/14 09:03:02;;;;;;;8.38;3.60;;;;;;;12.80;52.96;101068.16;6055481;19;20307;-73
2023/04/14 09:05:11;;;;;;;6.40;2.40;;;;;;;12.79;52.79;101055.03;6099059;19;20011;-73
2023/04/14 09:07:18;;;;;;;6.28;2.30;;;;;;;13.24;52.58;101059.06;6101040;19;20142;-72
2023/04/14 09:09:23;;;;;;;5.85;2.50;;;;;;;13.43;51.21;101069.59;6100425;19;20503;-72
2023/04/14 09:11:29;;;;;;;6.97;2.78;;;;;;;13.21;50.30;101060.06;6097770;19;20021;-73
2023/04/14 09:13:39;;;;;;;5.43;2.28;;;;;;;12.86;51.67;101057.31;6095865;19;20002;-72
2023/04/14 09:15:45;;;;;;;7.82;2.33;;;;;;;12.96;51.17;101063.03;6098884;19;20130;-72
2023/04/14 09:17:53;;;;;;;6.93;2.30;;;;;;;13.08;52.08;101057.16;6098563;19;20596;-73
2023/04/14 09:19:58;;;;;;;6.35;2.55;;;;;;;13.30;51.73;101058.81;6094387;19;19999;-72
2023/04/14 09:22:23;;;;;;;7.43;2.35;;;;;;;13.51;51.80;101057.75;6096253;19;20013;-72
2023/04/14 09:24:32;;;;;;;8.00;3.17;;;;;;;13.28;51.54;101058.03;6097973;19;20486;-72
2023/04/14 09:26:37;;;;;;;8.57;2.40;;;;;;;13.87;51.81;101054.19;6100062;19;20021;-73
2023/04/14 09:28:48;;;;;;;8.68;2.13;;;;;;;13.73;50.46;101043.47;6097060;19;20014;-72
2023/04/14 09:30:53;;;;;;;6.82;2.72;;;;;;;13.31;51.29;101050.81;6098332;19;20018;-72
2023/04/14 09:32:59;;;;;;;10.40;2.28;;;;;;;13.39;50.26;101056.56;6093978;19;20066;-72
2023/04/14 09:35:06;;;;;;;4.53;1.70;;;;;;;13.83;50.02;101050.00;6094000;19;20074;-72
2023/04/14 09:37:11;;;;;;;6.68;2.17;;;;;;;14.17;48.95;101043.84;6100340;19;20011;-72
2023/04/14 09:39:22;;;;;;;7.72;2.03;;;;;;;14.42;48.40;101043.41;6104321;19;23334;-73
2023/04/14 09:41:28;;;;;;;6.28;2.20;;;;;;;14.31;47.42;101040.47;6107569;19;20014;-77
2023/04/14 09:43:33;;;;;;;5.50;2.20;;;;;;;14.38;47.78;101041.03;6108817;19;20110;-76
2023/04/14 09:45:46;;;;;;;5.80;2.08;;;;;;;13.51;48.57;101047.19;6108512;19;20090;-76
2023/04/14 09:48:09;;;;;;;5.40;2.15;;;;;;;13.88;47.72;101041.88;6109058;19;20006;-76
2023/04/14 09:50:14;;;;;;;;;;;;;;;14.20;46.90;101027.81;6103171;19;20465;-76
2023/04/14 09:52:21;;;;;;;5.07;2.10;;;;;;;13.99;46.87;101037.72;6096643;19;19911;-77
2023/04/14 09:54:29;;;;;;;4.90;2.80;;;;;;;14.07;47.58;101033.84;6100281;19;20512;-77
2023/04/14 09:56:34;;;;;;;9.93;3.08;;;;;;;14.50;46.77;101027.97;6098911;19;20022;-76